createdAt,value
2019-02-26T00:01:26.085Z,99.90
2019-02-26T00:03:56.377Z,99.90
2019-02-26T00:06:30.134Z,99.90
2019-02-26T00:09:01.823Z,99.90
2019-02-26T00:11:36.182Z,99.90
2019-02-26T00:14:07.451Z,99.90
2019-02-26T00:16:39.986Z,99.90
2019-02-26T00:19:11.941Z,99.90
2019-02-26T00:21:45.662Z,99.90
2019-02-26T00:24:16.859Z,99.90
2019-02-26T00:26:47.971Z,99.90
2019-02-26T00:29:18.699Z,99.90
2019-02-26T00:31:50.785Z,99.90
2019-02-26T00:34:21.909Z,99.90
2019-02-26T00:36:52.624Z,99.90
2019-02-26T00:39:24.972Z,99.90
2019-02-26T00:41:56.298Z,99.90
2019-02-26T00:44:29.888Z,99.90
2019-02-26T00:47:04.317Z,99.90
2019-02-26T00:49:34.376Z,99.90
2019-02-26T00:52:08.712Z,99.90
2019-02-26T00:54:40.158Z,99.90
2019-02-26T00:57:11.439Z,99.90
2019-02-26T00:59:45.785Z,99.90
2019-02-26T01:02:17.065Z,99.90
2019-02-26T01:04:48.538Z,99.90
2019-02-26T01:07:23.849Z,99.90
2019-02-26T01:09:56.893Z,99.90
2019-02-26T01:12:27.727Z,99.90
2019-02-26T01:14:58.719Z,99.90
2019-02-26T01:17:31.251Z,99.90
2019-02-26T01:20:05.362Z,99.90
2019-02-26T01:22:37.646Z,99.90
2019-02-26T01:25:10.116Z,99.90
2019-02-26T01:27:41.371Z,99.90
2019-02-26T01:30:18.157Z,99.90
2019-02-26T01:32:47.483Z,99.90
2019-02-26T01:35:18.350Z,99.90
2019-02-26T01:37:51.325Z,99.90
2019-02-26T01:40:24.008Z,99.90
2019-02-26T01:42:57.933Z,99.90
2019-02-26T01:45:30.484Z,99.90
2019-02-26T01:48:01.520Z,99.90
2019-02-26T01:50:33.455Z,99.90
2019-02-26T01:53:05.907Z,99.90
2019-02-26T01:55:36.675Z,99.90
2019-02-26T01:58:07.457Z,99.90
2019-02-26T02:00:38.667Z,99.90
2019-02-26T02:03:10.718Z,99.90
2019-02-26T02:05:43.295Z,99.90
2019-02-26T02:08:15.565Z,99.90
2019-02-26T02:10:46.665Z,99.90
2019-02-26T02:13:17.409Z,99.90
2019-02-26T02:15:48.126Z,99.90
2019-02-26T02:18:20.670Z,99.90
2019-02-26T02:20:51.391Z,99.90
2019-02-26T02:23:23.568Z,99.90
2019-02-26T02:25:55.041Z,99.90
2019-02-26T02:28:26.338Z,99.90
2019-02-26T02:30:58.831Z,99.90
2019-02-26T02:33:32.075Z,99.90
2019-02-26T02:36:02.462Z,99.90
2019-02-26T02:38:36.507Z,99.90
2019-02-26T02:41:05.783Z,99.90
2019-02-26T02:43:36.646Z,99.90
2019-02-26T02:46:07.371Z,99.90
2019-02-26T02:48:38.654Z,99.90
2019-02-26T02:51:13.149Z,99.90
2019-02-26T02:53:41.922Z,99.90
2019-02-26T02:56:15.150Z,99.90
2019-02-26T02:58:46.878Z,99.90
2019-02-26T03:01:21.790Z,99.90
2019-02-26T03:03:50.558Z,99.90
2019-02-26T03:06:24.245Z,99.90
2019-02-26T03:08:55.524Z,99.90
2019-02-26T03:11:26.234Z,99.90
2019-02-26T03:13:57.056Z,99.90
2019-02-26T03:16:28.094Z,99.90
2019-02-26T03:18:59.326Z,99.90
2019-02-26T03:21:31.447Z,99.90
2019-02-26T03:24:03.376Z,99.90
2019-02-26T03:26:34.985Z,99.90
2019-02-26T03:29:05.921Z,99.90
2019-02-26T03:31:40.555Z,99.90
2019-02-26T03:34:14.713Z,99.90
2019-02-26T03:36:45.395Z,99.90
2019-02-26T03:39:15.202Z,99.90
2019-02-26T03:41:48.495Z,99.90
2019-02-26T03:44:19.199Z,99.90
2019-02-26T03:46:49.947Z,99.90
2019-02-26T03:49:20.665Z,99.90
2019-02-26T03:51:51.346Z,99.90
2019-02-26T03:54:22.118Z,99.90
2019-02-26T03:56:52.998Z,99.90
2019-02-26T03:59:24.729Z,99.90
2019-02-26T04:01:55.514Z,99.90
2019-02-26T04:04:28.393Z,99.90
2019-02-26T04:07:01.197Z,99.90
2019-02-26T04:09:31.692Z,99.90
2019-02-26T04:12:02.713Z,99.90
2019-02-26T04:14:33.779Z,99.90
2019-02-26T04:17:06.446Z,99.90
2019-02-26T04:19:38.177Z,99.90
2019-02-26T04:22:48.884Z,99.90
2019-02-26T04:25:22.247Z,99.90
2019-02-26T04:27:59.914Z,99.90
2019-02-26T04:31:12.183Z,99.90
2019-02-26T04:34:08.582Z,99.90
2019-02-26T04:37:13.702Z,99.90
2019-02-26T04:40:20.634Z,99.90
2019-02-26T04:43:34.141Z,99.90
2019-02-26T04:46:25.531Z,99.90
2019-02-26T04:48:57.881Z,99.90
2019-02-26T04:51:29.600Z,99.90
2019-02-26T04:54:02.143Z,99.90
2019-02-26T04:56:36.375Z,99.90
2019-02-26T04:59:09.314Z,99.90
2019-02-26T05:01:39.081Z,99.90
2019-02-26T05:04:10.078Z,99.90
2019-02-26T05:06:40.974Z,99.90
2019-02-26T05:09:12.341Z,99.90
2019-02-26T05:11:43.079Z,99.90
2019-02-26T05:14:15.403Z,99.90
2019-02-26T05:16:46.789Z,99.90
2019-02-26T05:19:21.238Z,99.90
2019-02-26T05:21:50.433Z,99.90
2019-02-26T05:24:23.788Z,99.90
2019-02-26T05:26:54.859Z,99.90
2019-02-26T05:29:26.093Z,99.90
2019-02-26T05:31:58.890Z,99.90
2019-02-26T05:34:29.345Z,99.90
2019-02-26T05:37:02.197Z,99.90
2019-02-26T05:39:32.880Z,99.90
2019-02-26T05:42:06.189Z,99.90
2019-02-26T05:44:36.061Z,99.90
2019-02-26T05:47:07.354Z,99.90
2019-02-26T05:49:40.749Z,99.90
2019-02-26T05:52:10.916Z,99.90
2019-02-26T05:54:41.904Z,99.90
2019-02-26T05:57:25.918Z,99.90
2019-02-26T05:59:46.148Z,99.90
2019-02-26T06:02:19.145Z,99.90
2019-02-26T06:04:49.762Z,99.90
2019-02-26T06:07:24.140Z,99.90
2019-02-26T06:09:56.169Z,99.90
2019-02-26T06:12:26.048Z,99.90
2019-02-26T06:15:00.704Z,99.90
2019-02-26T06:17:30.087Z,99.90
2019-02-26T06:20:11.055Z,99.90
2019-02-26T06:22:42.216Z,99.90
2019-02-26T06:25:18.659Z,99.90
2019-02-26T06:27:45.990Z,99.90
2019-02-26T06:30:16.916Z,99.90
2019-02-26T06:32:47.700Z,99.90
2019-02-26T06:35:19.331Z,99.90
2019-02-26T06:37:51.580Z,99.90
2019-02-26T06:40:22.354Z,99.90
2019-02-26T06:42:53.121Z,99.90
2019-02-26T06:45:24.219Z,99.90
2019-02-26T06:47:56.397Z,99.90
2019-02-26T06:50:27.421Z,99.90
2019-02-26T06:52:58.179Z,99.90
2019-02-26T06:55:28.898Z,99.90
2019-02-26T06:58:26.273Z,99.90
2019-02-26T07:00:58.933Z,99.90
2019-02-26T07:03:30.006Z,99.90
2019-02-26T07:06:03.200Z,99.90
2019-02-26T07:08:33.413Z,99.90
2019-02-26T07:11:04.551Z,99.90
2019-02-26T07:13:36.709Z,99.90
2019-02-26T07:16:09.208Z,99.90
2019-02-26T07:18:40.023Z,99.90
2019-02-26T07:21:10.732Z,99.90
2019-02-26T07:23:41.467Z,99.90
2019-02-26T07:26:13.641Z,99.90
2019-02-26T07:28:46.402Z,99.90
2019-02-26T07:31:18.207Z,99.90
2019-02-26T07:33:51.026Z,99.90
2019-02-26T07:36:23.611Z,99.90
2019-02-26T07:38:56.458Z,99.90
2019-02-26T07:41:29.830Z,99.90
2019-02-26T07:44:00.012Z,99.90
2019-02-26T07:46:32.837Z,99.90
2019-02-26T07:49:04.755Z,99.60
2019-02-26T07:51:38.070Z,98.60
2019-02-26T07:54:09.063Z,96.40
2019-02-26T07:56:39.782Z,94.00
2019-02-26T07:59:12.452Z,92.20
2019-02-26T08:01:45.257Z,91.50
2019-02-26T08:04:18.325Z,90.70
2019-02-26T08:06:48.846Z,89.20
2019-02-26T08:09:23.124Z,83.10
2019-02-26T08:11:52.545Z,76.30
2019-02-26T08:14:25.119Z,71.80
2019-02-26T08:16:56.771Z,68.60
2019-02-26T08:19:29.707Z,66.10
2019-02-26T08:22:00.931Z,63.10
2019-02-26T08:24:32.007Z,58.50
2019-02-26T08:27:03.419Z,57.10
2019-02-26T08:29:36.192Z,53.60
2019-02-26T08:32:07.246Z,49.00
2019-02-26T08:34:39.764Z,46.80
2019-02-26T08:37:10.755Z,44.30
2019-02-26T08:39:41.487Z,43.00
2019-02-26T08:42:12.959Z,40.20
2019-02-26T08:44:46.228Z,38.10
2019-02-26T08:47:18.654Z,35.50
2019-02-26T08:49:49.184Z,34.60
2019-02-26T08:52:22.837Z,33.10
2019-02-26T08:54:53.007Z,32.10
2019-02-26T08:57:24.042Z,31.60
2019-02-26T08:59:54.792Z,30.80
2019-02-26T09:02:25.631Z,31.10
2019-02-26T09:04:59.146Z,32.50
2019-02-26T09:07:30.129Z,31.70
2019-02-26T09:10:00.830Z,31.50
2019-02-26T09:12:31.613Z,31.20
2019-02-26T09:15:04.019Z,30.50
2019-02-26T09:17:36.994Z,29.70
2019-02-26T09:20:12.340Z,29.70
2019-02-26T09:22:45.818Z,30.10
2019-02-26T09:25:16.147Z,30.20
2019-02-26T09:27:47.063Z,30.80
2019-02-26T09:30:18.323Z,30.20
2019-02-26T09:32:52.305Z,29.70
2019-02-26T09:35:27.042Z,30.80
2019-02-26T09:38:00.737Z,31.80
2019-02-26T09:40:33.448Z,31.90
2019-02-26T09:43:02.537Z,32.00
2019-02-26T09:45:33.427Z,31.60
2019-02-26T09:48:04.362Z,31.90
2019-02-26T09:50:36.753Z,30.70
2019-02-26T09:53:08.157Z,30.80
2019-02-26T09:55:38.949Z,29.90
2019-02-26T09:58:09.949Z,29.90
2019-02-26T10:00:42.920Z,29.20
2019-02-26T10:03:15.083Z,29.20
2019-02-26T10:05:47.800Z,29.30
2019-02-26T10:08:19.997Z,29.20
2019-02-26T10:10:54.195Z,28.80
2019-02-26T10:13:27.738Z,29.20
2019-02-26T10:16:00.848Z,29.20
2019-02-26T10:18:32.995Z,28.50
2019-02-26T10:21:05.980Z,28.60
2019-02-26T10:23:36.368Z,28.70
2019-02-26T10:26:09.992Z,29.80
2019-02-26T10:28:42.670Z,30.70
2019-02-26T10:31:12.546Z,31.00
2019-02-26T10:33:45.776Z,30.50
2019-02-26T10:36:18.285Z,31.30
2019-02-26T10:38:50.902Z,31.00
2019-02-26T10:41:22.119Z,32.20
2019-02-26T10:43:52.941Z,32.40
2019-02-26T10:46:23.770Z,31.70
2019-02-26T10:48:55.471Z,32.00
2019-02-26T10:51:27.247Z,33.60
2019-02-26T10:53:59.966Z,35.10
2019-02-26T10:56:33.369Z,35.60
2019-02-26T10:59:05.924Z,36.10
2019-02-26T11:01:35.596Z,36.10
2019-02-26T11:04:06.542Z,35.90
2019-02-26T11:06:39.786Z,36.90
2019-02-26T11:09:17.348Z,37.20
2019-02-26T11:11:45.751Z,36.80
2019-02-26T11:14:17.533Z,36.20
2019-02-26T11:16:48.934Z,36.40
2019-02-26T11:19:19.692Z,36.90
2019-02-26T11:21:55.406Z,36.70
2019-02-26T11:24:25.721Z,37.30
2019-02-26T11:26:56.263Z,36.90
2019-02-26T11:29:28.534Z,36.60
2019-02-26T11:32:01.695Z,34.70
2019-02-26T11:34:33.969Z,34.50
2019-02-26T11:37:08.916Z,35.50
2019-02-26T11:39:38.132Z,35.50
2019-02-26T11:42:10.481Z,35.10
2019-02-26T11:44:41.472Z,36.10
2019-02-26T11:47:13.723Z,36.10
2019-02-26T11:49:46.641Z,35.90
2019-02-26T11:52:19.606Z,35.80
2019-02-26T11:54:49.988Z,35.50
2019-02-26T11:57:20.787Z,35.20
2019-02-26T11:59:51.618Z,35.90
2019-02-26T12:02:26.678Z,35.50
2019-02-26T12:04:54.951Z,36.30
2019-02-26T12:07:27.424Z,36.50
2019-02-26T12:10:04.677Z,37.10
2019-02-26T12:12:34.227Z,36.70
2019-02-26T12:15:07.341Z,35.40
2019-02-26T12:17:39.687Z,36.10
2019-02-26T12:20:14.634Z,36.20
2019-02-26T12:22:47.967Z,37.30
2019-02-26T12:25:17.785Z,37.00
2019-02-26T12:27:48.641Z,36.60
2019-02-26T12:30:20.671Z,36.20
2019-02-26T12:32:54.449Z,35.50
2019-02-26T12:35:24.838Z,35.00
2019-02-26T12:37:59.351Z,36.00
2019-02-26T12:40:28.626Z,36.60
2019-02-26T12:43:02.014Z,36.00
2019-02-26T12:45:35.123Z,35.40
2019-02-26T12:48:06.454Z,35.20
2019-02-26T12:50:40.465Z,35.20
2019-02-26T12:53:14.969Z,35.40
2019-02-26T12:55:44.106Z,36.20
2019-02-26T12:58:17.629Z,36.10
2019-02-26T13:00:47.607Z,36.10
2019-02-26T13:05:51.780Z,36.10
2019-02-26T13:08:24.274Z,35.80
2019-02-26T13:10:58.254Z,36.20
2019-02-26T13:13:28.187Z,36.60
2019-02-26T13:15:58.927Z,36.60
2019-02-26T13:18:30.684Z,36.30
2019-02-26T13:21:03.865Z,36.40
2019-02-26T13:23:34.398Z,36.30
2019-02-26T13:26:08.304Z,36.00
2019-02-26T13:28:38.784Z,36.90
2019-02-26T13:31:13.738Z,36.80
2019-02-26T13:33:43.024Z,37.30
2019-02-26T13:36:14.926Z,37.30
2019-02-26T13:38:48.971Z,37.90
2019-02-26T13:43:50.658Z,38.50
2019-02-26T13:46:21.703Z,38.80
2019-02-26T13:48:52.512Z,38.80
2019-02-26T13:51:23.423Z,38.50
2019-02-26T13:53:54.206Z,38.20
2019-02-26T13:56:25.082Z,38.20
2019-02-26T13:58:55.908Z,38.10
2019-02-26T14:01:26.836Z,38.10
2019-02-26T14:03:57.599Z,38.30
2019-02-26T14:06:29.730Z,38.90
2019-02-26T14:09:00.550Z,39.00
2019-02-26T14:11:33.304Z,38.80
2019-02-26T14:14:04.236Z,38.60
2019-02-26T14:16:35.561Z,39.90
2019-02-26T14:19:06.823Z,39.70
2019-02-26T14:21:37.670Z,40.60
2019-02-26T14:24:08.428Z,41.00
2019-02-26T14:26:39.180Z,41.10
2019-02-26T14:29:10.197Z,41.10
2019-02-26T14:31:41.238Z,41.00
2019-02-26T14:34:12.069Z,41.70
2019-02-26T14:36:43.162Z,41.10
2019-02-26T14:39:14.280Z,41.00
2019-02-26T14:41:45.185Z,40.90
2019-02-26T14:44:16.026Z,41.10
2019-02-26T14:46:46.963Z,41.10
2019-02-26T14:49:17.728Z,41.50
2019-02-26T14:51:48.530Z,41.60
2019-02-26T14:54:19.398Z,41.90
2019-02-26T14:56:50.239Z,41.90
2019-02-26T14:59:21.011Z,41.80
2019-02-26T15:01:52.062Z,41.60
2019-02-26T15:04:22.987Z,41.90
2019-02-26T15:06:55.847Z,42.80
2019-02-26T15:09:26.877Z,42.20
2019-02-26T15:11:57.863Z,42.30
2019-02-26T15:14:28.764Z,42.30
2019-02-26T15:16:59.601Z,41.50
2019-02-26T15:19:30.347Z,41.40
2019-02-26T15:22:01.103Z,41.90
2019-02-26T15:24:33.032Z,42.30
2019-02-26T15:27:03.877Z,42.60
2019-02-26T15:29:34.969Z,41.90
2019-02-26T15:32:06.019Z,42.70
2019-02-26T15:34:36.881Z,42.40
2019-02-26T15:37:07.732Z,42.30
2019-02-26T15:39:39.504Z,42.10
2019-02-26T15:42:10.294Z,42.00
2019-02-26T15:44:41.103Z,42.20
2019-02-26T15:47:11.903Z,42.40
2019-02-26T15:49:42.737Z,42.70
2019-02-26T15:52:13.528Z,42.30
2019-02-26T15:54:44.407Z,42.50
2019-02-26T15:57:15.256Z,43.00
2019-02-26T15:59:46.246Z,43.40
2019-02-26T16:02:17.188Z,43.80
2019-02-26T16:04:48.000Z,44.10
2019-02-26T16:07:18.871Z,44.20
2019-02-26T16:09:49.760Z,44.40
2019-02-26T16:12:20.889Z,44.70
2019-02-26T16:14:52.383Z,43.90
2019-02-26T16:17:23.207Z,43.80
2019-02-26T16:19:54.276Z,44.50
2019-02-26T16:22:25.053Z,44.40
2019-02-26T16:24:55.954Z,44.70
2019-02-26T16:27:26.763Z,45.30
2019-02-26T16:29:57.724Z,45.80
2019-02-26T16:32:28.507Z,45.80
2019-02-26T16:35:00.378Z,45.70
2019-02-26T16:37:32.432Z,46.40
2019-02-26T16:40:03.344Z,47.40
2019-02-26T16:42:34.231Z,47.70
2019-02-26T16:45:06.063Z,47.80
2019-02-26T16:47:37.419Z,48.40
2019-02-26T16:50:13.172Z,49.10
2019-02-26T16:52:42.941Z,50.50
2019-02-26T16:55:17.119Z,50.70
2019-02-26T16:57:46.776Z,51.60
2019-02-26T17:00:20.544Z,52.60
2019-02-26T17:02:51.599Z,53.30
2019-02-26T17:05:22.832Z,54.10
2019-02-26T17:07:54.012Z,56.60
2019-02-26T17:10:29.124Z,57.10
2019-02-26T17:13:01.767Z,57.70
2019-02-26T17:15:30.410Z,59.20
2019-02-26T17:18:01.332Z,60.90
2019-02-26T17:20:33.466Z,62.40
2019-02-26T17:23:04.920Z,64.00
2019-02-26T17:25:35.772Z,65.70
2019-02-26T17:28:06.704Z,67.40
2019-02-26T17:30:37.716Z,69.30
2019-02-26T17:33:11.401Z,71.60
2019-02-26T17:35:41.505Z,72.30
2019-02-26T17:38:12.919Z,75.00
2019-02-26T17:40:45.265Z,75.40
2019-02-26T17:43:17.187Z,76.60
2019-02-26T17:45:48.117Z,77.60
2019-02-26T17:48:18.941Z,79.70
2019-02-26T17:50:49.955Z,80.70
2019-02-26T17:53:20.796Z,81.90
2019-02-26T17:55:51.832Z,82.10
2019-02-26T17:58:22.702Z,83.70
2019-02-26T18:00:56.289Z,84.30
2019-02-26T18:03:28.276Z,86.00
2019-02-26T18:06:00.095Z,86.40
2019-02-26T18:08:30.916Z,87.60
2019-02-26T18:11:01.822Z,87.50
2019-02-26T18:13:32.826Z,89.40
2019-02-26T18:16:09.059Z,89.50
2019-02-26T18:18:37.000Z,90.20
2019-02-26T18:21:07.908Z,90.70
2019-02-26T18:23:38.691Z,90.70
2019-02-26T18:26:09.587Z,91.00
2019-02-26T18:28:40.794Z,91.40
2019-02-26T18:31:11.605Z,91.40
2019-02-26T18:33:42.627Z,91.80
2019-02-26T18:36:13.505Z,92.30
2019-02-26T18:38:48.330Z,92.60
2019-02-26T18:41:17.330Z,92.60
2019-02-26T18:43:48.170Z,93.10
2019-02-26T18:46:19.979Z,93.10
2019-02-26T18:48:50.882Z,93.00
2019-02-26T18:51:21.654Z,93.60
2019-02-26T18:53:52.594Z,93.80
2019-02-26T18:56:23.428Z,93.90
2019-02-26T18:58:54.337Z,94.30
2019-02-26T19:01:25.435Z,94.30
2019-02-26T19:03:56.323Z,94.90
2019-02-26T19:06:27.510Z,94.80
2019-02-26T19:08:58.477Z,95.10
2019-02-26T19:11:29.398Z,95.40
2019-02-26T19:14:00.314Z,95.40
2019-02-26T19:16:31.082Z,95.50
2019-02-26T19:19:03.149Z,95.70
2019-02-26T19:21:34.019Z,95.70
2019-02-26T19:24:05.227Z,95.70
2019-02-26T19:26:36.159Z,95.70
2019-02-26T19:29:07.350Z,95.70
2019-02-26T19:31:38.211Z,95.90
2019-02-26T19:34:09.293Z,96.00
2019-02-26T19:36:40.151Z,96.10
2019-02-26T19:39:11.079Z,96.40
2019-02-26T19:41:45.265Z,96.70
2019-02-26T19:44:14.776Z,97.00
2019-02-26T19:46:49.414Z,97.20
2019-02-26T19:49:18.216Z,97.20
2019-02-26T19:51:49.103Z,97.30
2019-02-26T19:54:19.885Z,97.30
2019-02-26T19:56:50.689Z,97.30
2019-02-26T19:59:21.446Z,97.30
2019-02-26T20:01:52.841Z,97.70
2019-02-26T20:04:23.675Z,98.00
2019-02-26T20:06:58.476Z,98.40
2019-02-26T20:09:27.257Z,98.40
2019-02-26T20:11:58.447Z,98.50
2019-02-26T20:14:29.252Z,98.70
2019-02-26T20:17:04.922Z,98.60
2019-02-26T20:19:32.725Z,99.10
2019-02-26T20:22:03.594Z,98.70
2019-02-26T20:24:34.464Z,98.70
2019-02-26T20:27:05.346Z,98.70
2019-02-26T20:29:36.220Z,98.70
2019-02-26T20:32:08.065Z,98.70
2019-02-26T20:34:39.182Z,98.80
2019-02-26T20:37:10.200Z,98.60
2019-02-26T20:39:43.574Z,98.90
2019-02-26T20:42:13.787Z,99.00
2019-02-26T20:44:46.425Z,99.00
2019-02-26T20:47:17.284Z,99.20
2019-02-26T20:49:48.162Z,99.10
2019-02-26T20:52:19.189Z,99.40
2019-02-26T20:54:50.319Z,99.40
2019-02-26T20:57:21.175Z,99.90
2019-02-26T20:59:52.452Z,99.50
2019-02-26T21:02:23.778Z,99.60
2019-02-26T21:04:54.857Z,99.80
2019-02-26T21:07:26.010Z,99.80
2019-02-26T21:10:04.044Z,99.90
2019-02-26T21:12:39.807Z,99.90
2019-02-26T21:15:13.885Z,99.90
2019-02-26T21:17:45.387Z,99.90
2019-02-26T21:20:16.489Z,99.90
2019-02-26T21:22:48.280Z,99.90
2019-02-26T21:25:19.088Z,99.90
2019-02-26T21:27:50.222Z,99.90
2019-02-26T21:30:21.696Z,99.90
2019-02-26T21:32:52.485Z,99.90
2019-02-26T21:35:23.386Z,99.90
2019-02-26T21:37:54.682Z,99.90
2019-02-26T21:40:25.597Z,99.90
2019-02-26T21:42:56.543Z,99.90
2019-02-26T21:45:29.204Z,99.90
2019-02-26T21:48:02.576Z,99.90
2019-02-26T21:50:32.765Z,99.90
2019-02-26T21:53:03.741Z,99.90
2019-02-26T21:55:43.989Z,99.90
2019-02-26T21:58:07.523Z,99.90
2019-02-26T22:00:39.050Z,99.90
2019-02-26T22:03:10.875Z,99.90
2019-02-26T22:05:41.854Z,99.90
2019-02-26T22:08:12.931Z,99.90
2019-02-26T22:10:43.957Z,99.90
2019-02-26T22:13:15.013Z,99.90
2019-02-26T22:15:46.141Z,99.90
2019-02-26T22:18:17.089Z,99.90
2019-02-26T22:20:48.194Z,99.90
2019-02-26T22:23:19.081Z,99.90
2019-02-26T22:25:52.553Z,99.90
2019-02-26T22:28:23.113Z,99.90
2019-02-26T22:30:55.906Z,99.90
2019-02-26T22:33:27.174Z,99.90
2019-02-26T22:35:59.952Z,99.90
2019-02-26T22:38:30.515Z,99.90
2019-02-26T22:41:02.294Z,99.90
2019-02-26T22:43:34.207Z,99.90
2019-02-26T22:46:05.135Z,99.90
2019-02-26T22:48:35.994Z,99.90
2019-02-26T22:51:06.960Z,99.90
2019-02-26T22:53:37.926Z,99.90
2019-02-26T22:56:08.753Z,99.90
2019-02-26T22:58:39.601Z,99.90
2019-02-26T23:01:18.554Z,99.90
2019-02-26T23:03:51.221Z,99.90
2019-02-26T23:06:22.183Z,99.90
2019-02-26T23:08:53.195Z,99.90
2019-02-26T23:11:24.841Z,99.90
2019-02-26T23:13:56.428Z,99.90
2019-02-26T23:16:28.943Z,99.90
2019-02-26T23:19:01.349Z,99.90
2019-02-26T23:21:33.675Z,99.90
2019-02-26T23:24:05.127Z,99.90
2019-02-26T23:26:36.437Z,99.90
2019-02-26T23:29:07.373Z,99.90
2019-02-26T23:31:38.200Z,99.90
2019-02-26T23:34:09.142Z,99.90
2019-02-26T23:36:40.239Z,99.90
2019-02-26T23:39:14.007Z,99.90
2019-02-26T23:41:46.492Z,99.90
2019-02-26T23:44:18.113Z,99.90
2019-02-26T23:46:49.658Z,99.90
2019-02-26T23:49:21.248Z,99.90
2019-02-26T23:51:53.707Z,99.90
2019-02-26T23:54:24.772Z,99.90
2019-02-26T23:56:55.759Z,99.90
2019-02-26T23:59:26.658Z,99.90
